North Pointe, South Carolina
Current Conditions -  °F | °C
As of 5:58 PM on Saturday 25 Oct 2014 (Local Time) from KMMT Reporting Station
Clear Clear  
Wind Chill: 71°   Ceiling: Unl
Heat Index: 71°   Visibility: 10mi
Dew Point: 39°   Wind: 6mph
Humidity: 31%   Direction: 260°W
Pressure: 29.96"   Gusts: NA
Location:  34.0558°N, 80.8483°W
Report Text: KMMT 252158Z AUTO 26005KT 10SM CLR 22/04 A2996 RMK AO2 SLP148 T02180037
Loading
Personal Weather Stations






























Interactive Weather Map
Tropical Storm Tracking
New forecast layout! Learn more

10-Day Weather Forecast

Advertisements
Track Severe Weather on mobile